Time;durP1;ratioP1;P1;durP2;ratioP2;P2;SDS_P1;SDS_P2;PMS_P1;PMS_P2;Temp;Humidity;BMP_temperature;BMP_pressure;BME280_temperature;BME280_humidity;BME280_pressure;Samples;Min_cycle;Max_cycle;Signal;HPM_P1;HPM_P2
2021/12/24 00:00:38;;;;;;;4.85;3.63;;;7.10;98.90;;;;;;5014540;28;20266;-80
2021/12/24 00:03:06;;;;;;;5.80;4.07;;;6.90;99.90;;;;;;5022176;28;20204;-79
2021/12/24 00:05:34;;;;;;;4.20;3.80;;;7.00;99.00;;;;;;5026055;28;20993;-79
2021/12/24 00:08:01;;;;;;;4.10;3.72;;;7.00;99.00;;;;;;5024468;28;21253;-80
2021/12/24 00:10:31;;;;;;;4.10;3.53;;;;;;;;;;5018849;28;20263;-80
2021/12/24 00:13:02;;;;;;;5.35;3.72;;;;;;;;;;5019827;28;20288;-80
2021/12/24 00:15:53;;;;;;;4.93;4.03;;;7.10;98.90;;;;;;5020687;28;20211;-80
2021/12/24 00:18:34;;;;;;;4.68;3.65;;;7.10;98.90;;;;;;5024388;28;20940;-80
2021/12/24 00:35:11;;;;;;;3.85;3.45;;;7.00;99.90;;;;;;5013205;28;20213;-79
2021/12/24 00:37:39;;;;;;;4.78;3.50;;;7.20;99.20;;;;;;5020922;28;20240;-80
2021/12/24 00:40:13;;;;;;;4.05;3.22;;;7.10;99.20;;;;;;5020792;28;20260;-80
2021/12/24 00:42:43;;;;;;;5.25;3.58;;;6.90;99.90;;;;;;5021797;28;20208;-80
2021/12/24 00:45:12;;;;;;;5.63;4.20;;;7.00;99.30;;;;;;5019636;28;20219;-80
2021/12/24 00:47:41;;;;;;;3.70;3.40;;;7.50;99.90;;;;;;5024789;28;20638;-80
2021/12/24 00:50:13;;;;;;;4.32;3.92;;;7.10;99.40;;;;;;5021050;28;20259;-80
2021/12/24 00:52:48;;;;;;;4.07;3.70;;;7.10;99.90;;;;;;5019135;28;20197;-80
2021/12/24 00:55:16;;;;;;;4.60;3.60;;;7.70;99.90;;;;;;5019878;28;20667;-80
2021/12/24 00:57:44;;;;;;;4.97;3.50;;;6.90;99.90;;;;;;5023548;28;20300;-80
2021/12/24 01:00:15;;;;;;;4.95;3.95;;;7.30;99.90;;;;;;5020348;28;20628;-80
2021/12/24 01:02:44;;;;;;;3.88;3.47;;;7.20;99.20;;;;;;5025940;28;20201;-80
2021/12/24 01:05:12;;;;;;;4.20;3.50;;;7.40;99.90;;;;;;5023097;28;20208;-80
2021/12/24 01:07:39;;;;;;;7.05;3.25;;;;;;;;;;5022497;28;20200;-80
2021/12/24 01:10:08;;;;;;;4.20;3.30;;;7.40;99.20;;;;;;5023881;28;20192;-80
2021/12/24 01:12:36;;;;;;;3.10;2.83;;;7.10;99.90;;;;;;5018436;28;20615;-80
2021/12/24 01:15:06;;;;;;;3.63;3.13;;;7.40;99.20;;;;;;5021137;28;20205;-80
2021/12/24 01:17:39;;;;;;;2.90;2.70;;;;;;;;;;5019838;28;20686;-80
2021/12/24 01:20:18;;;;;;;4.67;4.00;;;6.70;99.90;;;;;;5023383;28;20202;-80
2021/12/24 01:25:33;;;;;;;3.93;3.60;;;;;;;;;;5017776;28;20646;-80
2021/12/24 01:39:18;;;;;;;3.57;2.70;;;;;;;;;;5019875;28;21177;-79
2021/12/24 01:44:31;;;;;;;4.67;3.87;;;7.30;99.90;;;;;;5017655;28;20659;-80
2021/12/24 01:47:00;;;;;;;5.20;3.33;;;7.30;99.30;;;;;;5018538;28;20690;-80
2021/12/24 01:49:27;;;;;;;2.92;2.60;;;;;;;;;;5019742;28;20636;-79
2021/12/24 01:51:57;;;;;;;3.43;3.03;;;7.30;99.90;;;;;;5018813;28;20212;-79
2021/12/24 01:54:24;;;;;;;3.47;3.17;;;7.30;99.20;;;;;;5023182;28;21360;-80
2021/12/24 01:56:51;;;;;;;3.23;2.83;;;7.30;99.90;;;;;;5020144;28;20229;-80
2021/12/24 01:59:18;;;;;;;4.53;3.10;;;7.20;99.90;;;;;;5022111;28;21180;-80
2021/12/24 02:01:46;;;;;;;3.50;3.10;;;7.30;99.40;;;;;;5020011;28;20658;-80
2021/12/24 02:04:14;;;;;;;2.90;2.70;;;7.10;99.90;;;;;;5023145;28;20635;-80
2021/12/24 02:06:42;;;;;;;4.20;2.80;;;7.20;99.90;;;;;;5016503;28;20663;-80
2021/12/24 02:09:11;;;;;;;3.20;2.90;;;7.60;99.90;;;;;;5022840;28;21176;-79
2021/12/24 02:11:38;;;;;;;3.03;2.70;;;7.00;99.90;;;;;;5023582;28;20682;-80
2021/12/24 02:14:07;;;;;;;3.33;2.47;;;7.20;99.40;;;;;;5020216;28;21188;-80
2021/12/24 02:16:46;;;;;;;3.33;3.13;;;7.10;99.30;;;;;;5013180;28;20677;-79
2021/12/24 02:30:42;;;;;;;4.60;3.03;;;;;;;;;;5022891;28;20636;-80
2021/12/24 02:33:12;;;;;;;3.37;2.80;;;6.90;99.90;;;;;;5023260;28;20640;-80
2021/12/24 02:35:39;;;;;;;3.40;2.73;;;;;;;;;;5019821;28;20650;-80
2021/12/24 02:38:07;;;;;;;3.47;3.17;;;;;;;;;;5021062;28;20671;-80
2021/12/24 02:40:35;;;;;;;4.15;2.65;;;7.10;99.90;;;;;;5018976;28;20632;-79
2021/12/24 02:43:03;;;;;;;4.47;3.03;;;7.00;99.90;;;;;;5018334;28;20271;-79
2021/12/24 02:45:33;;;;;;;2.50;2.30;;;7.20;99.90;;;;;;5019682;28;20632;-79
2021/12/24 02:48:25;;;;;;;4.53;3.23;;;7.20;99.90;;;;;;5020198;28;20212;-80
2021/12/24 02:53:59;;;;;;;3.67;2.80;;;;;;;;;;5021386;28;20230;-79
2021/12/24 02:56:30;;;;;;;3.85;3.03;;;7.30;99.90;;;;;;5014488;28;20750;-80
2021/12/24 02:58:58;;;;;;;3.43;2.80;;;7.30;99.10;;;;;;5023105;28;20199;-79
2021/12/24 03:01:28;;;;;;;2.80;2.60;;;7.30;99.90;;;;;;5019428;28;20634;-79
2021/12/24 03:03:55;;;;;;;4.30;2.60;;;7.20;99.20;;;;;;5018862;28;20690;-79
2021/12/24 03:06:27;;;;;;;3.27;2.87;;;7.10;99.90;;;;;;5022027;28;20687;-80
2021/12/24 03:08:56;;;;;;;3.17;2.53;;;7.00;99.90;;;;;;5018839;28;20685;-79
2021/12/24 03:11:24;;;;;;;3.57;2.77;;;7.00;99.90;;;;;;5022158;28;20306;-79
2021/12/24 03:13:52;;;;;;;3.30;2.93;;;7.40;99.90;;;;;;5018852;28;20703;-79
2021/12/24 03:16:20;;;;;;;4.20;2.85;;;;;;;;;;5019811;28;20730;-79
2021/12/24 03:18:47;;;;;;;2.47;2.27;;;7.20;99.20;;;;;;5014982;28;20244;-79
2021/12/24 03:21:18;;;;;;;4.22;2.72;;;7.40;99.90;;;;;;5020388;28;21018;-79
2021/12/24 03:24:33;;;;;;;4.07;3.67;;;7.10;99.90;;;;;;5015536;28;20210;-79
2021/12/24 03:26:35;;;;;;;4.50;3.20;;;7.20;99.20;;;;;;5021226;28;20267;-80
2021/12/24 03:29:04;;;;;;;4.07;2.90;;;7.30;99.90;;;;;;5019438;28;20646;-79
2021/12/24 03:31:31;;;;;;;3.10;2.57;;;7.20;99.90;;;;;;5028044;28;20647;-79
2021/12/24 03:33:58;;;;;;;3.57;3.23;;;;;;;;;;5022749;28;21027;-80
2021/12/24 03:36:29;;;;;;;3.00;2.67;;;7.00;99.90;;;;;;5021930;28;21560;-80
2021/12/24 03:38:59;;;;;;;6.43;2.90;;;7.00;99.90;;;;;;5024704;28;20677;-79
2021/12/24 03:41:26;;;;;;;2.87;2.47;;;6.90;99.90;;;;;;5021432;28;20739;-79
2021/12/24 03:43:55;;;;;;;5.17;2.93;;;;;;;;;;5022742;28;20657;-79
2021/12/24 03:46:31;;;;;;;3.30;2.93;;;7.60;99.90;;;;;;5024131;28;20709;-79
2021/12/24 03:49:02;;;;;;;3.17;2.93;;;7.10;99.90;;;;;;5020991;28;21049;-79
2021/12/24 03:51:41;;;;;;;4.37;3.80;;;7.10;99.70;;;;;;5022780;28;20637;-79
2021/12/24 03:56:52;;;;;;;3.10;2.80;;;6.90;99.90;;;;;;5025546;28;20624;-79
2021/12/24 03:59:21;;;;;;;4.33;3.20;;;7.00;99.90;;;;;;5024030;28;21188;-79
2021/12/24 04:01:48;;;;;;;3.93;2.90;;;;;;;;;;5023227;28;20627;-79
2021/12/24 04:04:16;;;;;;;3.60;3.30;;;;;;;;;;5021215;28;20689;-80
2021/12/24 04:06:43;;;;;;;3.57;2.53;;;;;;;;;;5023416;28;20623;-79
2021/12/24 04:09:11;;;;;;;3.83;3.10;;;6.70;99.90;;;;;;5024961;28;20627;-79
2021/12/24 04:11:39;;;;;;;4.33;3.03;;;9.20;99.90;;;;;;5022683;28;20247;-79
2021/12/24 04:14:06;;;;;;;6.10;2.70;;;6.80;99.90;;;;;;5026192;28;21610;-79
2021/12/24 04:16:35;;;;;;;4.30;3.90;;;6.80;99.90;;;;;;5020859;28;20642;-80
2021/12/24 04:19:21;;;;;;;5.40;2.70;;;6.80;99.90;;;;;;5021985;28;20695;-79
2021/12/24 04:24:53;;;;;;;2.60;2.35;;;;;;;;;;5021376;28;20859;-79
2021/12/24 04:27:22;;;;;;;4.25;2.88;;;6.70;99.90;;;;;;5019697;28;20216;-79
2021/12/24 04:29:49;;;;;;;6.32;3.22;;;;;;;;;;5021530;28;20692;-80
2021/12/24 04:32:21;;;;;;;2.55;2.40;;;6.80;99.90;;;;;;5021834;28;20296;-79
2021/12/24 04:34:50;;;;;;;3.20;2.77;;;;;;;;;;5014377;28;20200;-79
2021/12/24 04:51:19;;;;;;;8.43;3.17;;;7.60;99.90;;;;;;4981474;28;21258;-79
2021/12/24 05:02:24;;;;;;;3.83;3.40;;;;;;;;;;5024478;28;20208;-79
2021/12/24 05:05:00;;;;;;;3.13;2.83;;;7.00;99.90;;;;;;5018557;28;20632;-79
2021/12/24 05:07:55;;;;;;;3.72;2.75;;;7.10;99.90;;;;;;5023853;28;20266;-79
2021/12/24 05:10:25;;;;;;;3.03;2.78;;;7.10;99.90;;;;;;5012301;28;20236;-79
2021/12/24 05:12:52;;;;;;;6.28;3.38;;;7.10;99.90;;;;;;5022897;28;20212;-78
2021/12/24 05:15:19;;;;;;;3.13;2.70;;;7.00;99.90;;;;;;5020280;28;20219;-79
2021/12/24 05:18:03;;;;;;;3.88;3.00;;;7.40;99.90;;;;;;5020755;28;20294;-79
2021/12/24 05:23:17;;;;;;;3.15;2.85;;;;;;;;;;5023041;28;20549;-80
2021/12/24 05:25:46;;;;;;;4.33;2.60;;;7.10;99.90;;;;;;5019919;28;20193;-79
2021/12/24 05:28:14;;;;;;;3.47;3.17;;;7.00;99.90;;;;;;5016566;28;20623;-79
2021/12/24 05:30:42;;;;;;;2.63;2.40;;;7.10;99.90;;;;;;5019536;28;20764;-79
2021/12/24 05:33:13;;;;;;;9.43;3.58;;;7.30;99.90;;;;;;5020492;28;20690;-79
2021/12/24 05:35:42;;;;;;;2.97;2.63;;;7.30;99.90;;;;;;5021687;28;20684;-79
2021/12/24 05:38:09;;;;;;;5.00;3.00;;;7.40;99.90;;;;;;5019191;28;20661;-79
2021/12/24 05:40:36;;;;;;;3.22;2.92;;;;;;;;;;5020411;28;20628;-79
2021/12/24 05:43:04;;;;;;;3.10;2.80;;;;;;;;;;5021428;28;20196;-79
2021/12/24 05:45:31;;;;;;;4.60;3.15;;;;;;;;;;5024591;28;20639;-79
2021/12/24 05:47:59;;;;;;;5.18;3.90;;;;;;;;;;5024128;28;20216;-79
2021/12/24 05:50:26;;;;;;;3.53;2.80;;;7.00;99.90;;;;;;5019715;28;20983;-79
2021/12/24 05:52:55;;;;;;;3.73;3.07;;;;;;;;;;5018736;28;20779;-79
2021/12/24 05:55:22;;;;;;;3.83;2.57;;;;;;;;;;5020116;28;20635;-79
2021/12/24 05:57:49;;;;;;;3.08;2.78;;;7.30;99.90;;;;;;5020927;28;20737;-79
2021/12/24 06:00:17;;;;;;;4.07;2.80;;;7.10;99.90;;;;;;5023088;28;20280;-79
2021/12/24 06:02:44;;;;;;;2.88;2.65;;;6.90;99.90;;;;;;5020248;28;20635;-79
2021/12/24 06:05:14;;;;;;;3.17;2.77;;;7.00;99.90;;;;;;5011839;28;20229;-79
2021/12/24 06:07:41;;;;;;;3.50;2.97;;;;;;;;;;5021589;28;20668;-79
2021/12/24 06:10:10;;;;;;;3.80;3.10;;;6.90;99.90;;;;;;5016491;28;21189;-79
2021/12/24 06:12:37;;;;;;;3.60;2.90;;;;;;;;;;5022706;28;20635;-79
2021/12/24 06:15:07;;;;;;;4.20;3.00;;;7.90;99.90;;;;;;5019245;28;20259;-79
2021/12/24 06:17:37;;;;;;;4.70;3.45;;;7.20;99.90;;;;;;5020612;28;20221;-80
2021/12/24 06:20:05;;;;;;;3.40;2.78;;;7.50;99.90;;;;;;5019713;28;20201;-78
2021/12/24 06:22:34;;;;;;;6.07;3.38;;;;;;;;;;5019781;28;20262;-79
2021/12/24 06:25:01;;;;;;;3.50;3.20;;;;;;;;;;5016527;28;20702;-79
2021/12/24 06:27:30;;;;;;;4.43;3.05;;;7.40;99.90;;;;;;5022228;28;20690;-79
2021/12/24 06:29:57;;;;;;;3.97;3.67;;;;;;;;;;5020102;28;20196;-79
2021/12/24 06:32:25;;;;;;;3.97;3.28;;;6.80;99.90;;;;;;5021563;28;21034;-79
2021/12/24 06:34:52;;;;;;;5.97;3.13;;;;;;;;;;5016851;28;20224;-79
2021/12/24 06:37:19;;;;;;;4.72;3.53;;;7.40;99.90;;;;;;5022062;28;20250;-79
2021/12/24 06:39:46;;;;;;;3.57;3.20;;;;;;;;;;5019490;28;20666;-79
2021/12/24 06:42:14;;;;;;;3.95;3.33;;;;;;;;;;5019253;28;20667;-79
2021/12/24 06:44:42;;;;;;;4.03;3.63;;;;;;;;;;5022948;28;20382;-79
2021/12/24 06:47:10;;;;;;;2.90;2.70;;;7.40;99.90;;;;;;5020753;28;20636;-79
2021/12/24 06:49:37;;;;;;;2.38;2.17;;;;;;;;;;5018648;28;20653;-79
2021/12/24 06:52:05;;;;;;;3.57;3.27;;;6.60;99.90;;;;;;5019625;28;20760;-79
2021/12/24 06:54:33;;;;;;;5.27;3.60;;;;;;;;;;5019444;28;21018;-79
2021/12/24 06:57:01;;;;;;;3.25;2.95;;;;;;;;;;5020750;28;20636;-79
2021/12/24 06:59:28;;;;;;;4.73;3.33;;;;;;;;;;5015928;28;20263;-79
2021/12/24 07:01:59;;;;;;;4.33;3.03;;;7.40;99.90;;;;;;5024524;28;20608;-79
2021/12/24 07:04:26;;;;;;;3.70;3.23;;;7.40;99.90;;;;;;5028340;28;21187;-79
2021/12/24 07:06:54;;;;;;;3.53;3.23;;;;;;;;;;5029841;28;20651;-79
2021/12/24 07:09:21;;;;;;;5.00;3.40;;;7.30;99.90;;;;;;5029924;28;20631;-78
2021/12/24 07:11:48;;;;;;;3.30;3.00;;;7.30;99.90;;;;;;5024927;28;21247;-79
2021/12/24 07:14:15;;;;;;;3.70;3.30;;;;;;;;;;5030483;28;20675;-80
2021/12/24 07:16:43;;;;;;;4.73;3.70;;;7.70;99.90;;;;;;5026505;28;21013;-80
2021/12/24 07:19:11;;;;;;;2.73;2.50;;;7.30;99.90;;;;;;5031309;28;20666;-80
2021/12/24 07:21:39;;;;;;;3.47;3.17;;;;;;;;;;5028674;28;20685;-80
2021/12/24 07:24:07;;;;;;;3.13;2.80;;;7.40;99.90;;;;;;5029429;28;20651;-79
2021/12/24 07:26:34;;;;;;;4.63;4.20;;;7.20;99.90;;;;;;5027388;28;20236;-80
2021/12/24 07:29:01;;;;;;;4.93;3.50;;;7.20;99.90;;;;;;5031054;28;21474;-79
2021/12/24 07:31:28;;;;;;;4.27;3.87;;;7.30;99.90;;;;;;5028422;28;20635;-79
2021/12/24 07:33:55;;;;;;;5.10;3.43;;;7.50;99.90;;;;;;5029297;28;20631;-81
2021/12/24 07:36:24;;;;;;;4.07;3.00;;;8.20;99.90;;;;;;5022590;28;20623;-80
2021/12/24 07:38:51;;;;;;;4.03;3.23;;;;;;;;;;5026866;28;20762;-81
2021/12/24 07:41:19;;;;;;;4.30;3.83;;;7.30;99.90;;;;;;5026002;28;20634;-82
2021/12/24 07:43:47;;;;;;;4.27;3.43;;;;;;;;;;5023907;28;20642;-80
2021/12/24 07:46:14;;;;;;;3.60;3.27;;;7.20;99.90;;;;;;5027838;28;20630;-79
2021/12/24 07:48:48;;;;;;;4.20;3.80;;;;;;;;;;5025171;28;21577;-79
2021/12/24 07:54:01;;;;;;;4.50;3.63;;;7.30;99.90;;;;;;5022021;28;20627;-79
2021/12/24 07:56:29;;;;;;;3.27;3.07;;;7.30;99.90;;;;;;5018863;28;20698;-80
2021/12/24 07:58:56;;;;;;;4.80;3.23;;;6.60;99.90;;;;;;5021978;28;21308;-79
2021/12/24 08:01:24;;;;;;;4.00;3.40;;;7.10;99.90;;;;;;5023291;28;20631;-79
2021/12/24 08:03:53;;;;;;;11.00;9.87;;;7.90;99.90;;;;;;5029407;28;20627;-79
2021/12/24 08:06:20;;;;;;;6.63;5.87;;;7.20;99.90;;;;;;5026806;28;20627;-79
2021/12/24 08:08:47;;;;;;;5.87;5.33;;;;;;;;;;5022626;28;20631;-79
2021/12/24 08:11:16;;;;;;;6.23;5.27;;;7.70;99.90;;;;;;5016450;28;20687;-79
2021/12/24 08:13:44;;;;;;;4.70;4.23;;;7.30;99.90;;;;;;5017290;28;20636;-79
2021/12/24 08:16:12;;;;;;;5.80;5.30;;;5.00;99.90;;;;;;5023901;28;20650;-79
2021/12/24 08:18:39;;;;;;;5.87;5.30;;;;;;;;;;5019408;28;20717;-79
2021/12/24 08:21:06;;;;;;;4.50;4.10;;;;;;;;;;5024898;28;20702;-79
2021/12/24 08:23:33;;;;;;;4.60;4.20;;;7.50;99.90;;;;;;5022409;28;20709;-79
2021/12/24 08:26:01;;;;;;;5.83;4.53;;;;;;;;;;5021402;28;20631;-79
2021/12/24 08:28:29;;;;;;;4.83;4.23;;;7.90;99.90;;;;;;5021528;28;20631;-79
2021/12/24 08:30:57;;;;;;;4.13;3.73;;;7.60;99.90;;;;;;5026609;28;20670;-79
2021/12/24 08:33:24;;;;;;;4.87;4.50;;;7.60;99.90;;;;;;5029386;28;20659;-79
2021/12/24 08:35:51;;;;;;;4.80;4.17;;;7.40;99.90;;;;;;5024900;28;21239;-79
2021/12/24 08:38:19;;;;;;;5.90;4.37;;;7.60;99.90;;;;;;5025061;28;20697;-79
2021/12/24 08:40:46;;;;;;;4.37;3.80;;;7.40;99.90;;;;;;5022128;28;20682;-79
2021/12/24 08:43:14;;;;;;;4.90;3.53;;;7.40;99.90;;;;;;5023785;28;20648;-79
2021/12/24 08:45:42;;;;;;;4.10;3.37;;;7.60;99.90;;;;;;5024373;28;20662;-79
2021/12/24 08:48:11;;;;;;;4.70;3.13;;;7.60;99.90;;;;;;5025364;28;20967;-80
2021/12/24 08:50:38;;;;;;;4.87;3.57;;;7.70;99.90;;;;;;5020559;28;20208;-79
2021/12/24 08:53:06;;;;;;;3.53;3.23;;;7.80;99.90;;;;;;5023352;28;20638;-79
2021/12/24 08:55:34;;;;;;;4.30;3.57;;;7.70;99.90;;;;;;5026605;28;20638;-79
2021/12/24 08:58:02;;;;;;;4.83;3.67;;;7.60;99.90;;;;;;5023047;28;20654;-79
2021/12/24 09:00:30;;;;;;;4.40;3.77;;;7.60;99.90;;;;;;5026333;28;21292;-79
2021/12/24 09:02:58;;;;;;;6.83;4.50;;;7.70;99.90;;;;;;5023069;28;20639;-79
2021/12/24 09:05:26;;;;;;;5.47;4.17;;;7.50;99.90;;;;;;5019148;28;20761;-79
2021/12/24 09:07:53;;;;;;;5.33;4.20;;;7.70;99.90;;;;;;5027964;28;20677;-80
2021/12/24 09:10:20;;;;;;;6.67;4.33;;;7.50;99.90;;;;;;5027165;28;20681;-79
2021/12/24 09:12:48;;;;;;;4.13;3.80;;;7.80;99.90;;;;;;5027513;28;20627;-79
2021/12/24 09:15:17;;;;;;;5.77;4.33;;;7.60;99.90;;;;;;5019896;28;20639;-82
2021/12/24 09:17:46;;;;;;;4.60;4.20;;;7.70;99.90;;;;;;5026096;28;20644;-82
2021/12/24 09:20:23;;;;;;;5.07;4.57;;;7.70;99.90;;;;;;5023164;28;21502;-81
2021/12/24 09:22:51;;;;;;;7.50;3.40;;;;;;;;;;5023320;28;20627;-81
2021/12/24 09:25:19;;;;;;;4.30;3.90;;;7.90;99.90;;;;;;5019556;28;21235;-81
2021/12/24 09:27:46;;;;;;;4.97;3.83;;;7.80;99.90;;;;;;5021226;28;20679;-81
2021/12/24 09:30:13;;;;;;;5.67;5.17;;;7.80;99.90;;;;;;5021461;28;20632;-82
2021/12/24 09:32:40;;;;;;;4.20;3.80;;;7.60;99.90;;;;;;5021157;28;20759;-81
2021/12/24 09:35:08;;;;;;;5.13;4.10;;;;;;;;;;5022762;28;20368;-81
2021/12/24 09:37:37;;;;;;;9.10;8.07;;;7.70;99.90;;;;;;5024507;28;20689;-81
2021/12/24 09:40:05;;;;;;;5.10;4.60;;;7.30;99.90;;;;;;5021125;28;21090;-81
2021/12/24 09:42:34;;;;;;;7.10;5.03;;;7.60;99.90;;;;;;5021305;28;21025;-81
2021/12/24 09:45:01;;;;;;;5.10;4.70;;;7.90;99.90;;;;;;5025676;28;21270;-82
2021/12/24 09:47:28;;;;;;;3.90;3.60;;;7.70;99.90;;;;;;5023470;28;20636;-81
2021/12/24 09:49:56;;;;;;;4.30;3.80;;;;;;;;;;5022262;28;20982;-82
2021/12/24 09:52:23;;;;;;;6.10;5.50;;;;;;;;;;5022716;28;20635;-82
2021/12/24 09:54:54;;;;;;;7.10;6.40;;;7.60;99.90;;;;;;5024589;28;20624;-82
2021/12/24 09:57:22;;;;;;;4.47;4.07;;;7.60;99.90;;;;;;5022064;28;20973;-82
2021/12/24 09:59:49;;;;;;;4.82;4.28;;;7.50;99.90;;;;;;5025437;28;20678;-82
2021/12/24 10:02:18;;;;;;;5.83;4.53;;;7.50;99.90;;;;;;5022674;28;20196;-81
2021/12/24 10:04:48;;;;;;;5.27;4.50;;;7.60;99.90;;;;;;5023412;28;20635;-82
2021/12/24 10:07:17;;;;;;;8.13;7.43;;;8.00;99.90;;;;;;5022344;28;20651;-82
2021/12/24 10:09:46;;;;;;;5.70;4.13;;;7.10;99.90;;;;;;5022950;28;20668;-82
2021/12/24 10:12:18;;;;;;;5.78;4.95;;;7.70;99.90;;;;;;5025535;28;20623;-81
2021/12/24 10:14:49;;;;;;;4.70;3.60;;;7.70;99.90;;;;;;5026307;28;20571;-82
2021/12/24 10:17:20;;;;;;;4.23;3.83;;;7.80;99.90;;;;;;5023567;28;20991;-82
2021/12/24 10:19:49;;;;;;;4.10;3.70;;;7.90;99.90;;;;;;5018981;28;20764;-82
2021/12/24 10:22:19;;;;;;;4.47;3.70;;;7.90;99.90;;;;;;5025899;28;20623;-82
2021/12/24 10:24:59;;;;;;;7.00;5.00;;;7.60;99.90;;;;;;5024971;28;20623;-81
2021/12/24 10:27:31;;;;;;;4.40;4.10;;;7.80;99.90;;;;;;5022142;28;21012;-82
2021/12/24 10:29:58;;;;;;;4.63;3.55;;;7.80;99.90;;;;;;5016771;28;20635;-82
2021/12/24 10:32:26;;;;;;;4.30;3.90;;;;;;;;;;5021359;28;20210;-82
2021/12/24 10:34:53;;;;;;;3.60;3.30;;;;;;;;;;5022475;28;21048;-81
2021/12/24 10:37:33;;;;;;;5.30;4.17;;;7.80;99.90;;;;;;5025665;28;20219;-82
2021/12/24 10:40:06;;;;;;;3.97;3.67;;;7.80;99.90;;;;;;5022813;28;20657;-81
2021/12/24 10:42:39;;;;;;;4.40;4.00;;;7.70;99.90;;;;;;5026044;28;20648;-81
2021/12/24 10:45:08;;;;;;;5.63;5.13;;;7.90;99.90;;;;;;5024594;28;20631;-82
2021/12/24 10:47:40;;;;;;;4.20;3.80;;;7.90;99.90;;;;;;5026931;28;20634;-82
2021/12/24 10:50:26;;;;;;;4.90;4.40;;;7.80;99.90;;;;;;5025471;28;20780;-82
2021/12/24 10:55:35;;;;;;;9.20;6.90;;;7.80;99.90;;;;;;5023031;28;20615;-81
2021/12/24 10:58:07;;;;;;;3.80;3.50;;;7.80;99.90;;;;;;5025078;28;20631;-82
2021/12/24 11:00:39;;;;;;;5.53;4.60;;;7.80;99.90;;;;;;5027465;28;20732;-81
2021/12/24 11:03:09;;;;;;;6.57;6.07;;;7.80;99.90;;;;;;5023305;28;20636;-81
2021/12/24 11:05:39;;;;;;;4.30;3.90;;;7.80;99.90;;;;;;5021621;28;20208;-82
2021/12/24 11:08:08;;;;;;;4.90;4.45;;;7.70;99.90;;;;;;5022267;28;20744;-81
2021/12/24 11:10:44;;;;;;;4.03;3.35;;;7.80;99.90;;;;;;5020839;28;20204;-81
2021/12/24 11:13:21;;;;;;;4.40;4.00;;;7.90;99.90;;;;;;5022375;28;20283;-81
2021/12/24 11:15:50;;;;;;;3.70;3.40;;;7.80;99.90;;;;;;5017689;28;20666;-82
2021/12/24 11:18:20;;;;;;;4.10;3.70;;;7.70;99.90;;;;;;5019954;28;21342;-82
2021/12/24 11:20:55;;;;;;;5.77;4.30;;;7.80;99.90;;;;;;5021711;28;20679;-81
2021/12/24 11:23:23;;;;;;;3.00;2.80;;;8.20;99.90;;;;;;5023999;28;20631;-81
2021/12/24 11:25:52;;;;;;;4.03;3.63;;;7.50;99.90;;;;;;5025042;28;20630;-82
2021/12/24 11:28:22;;;;;;;4.27;3.40;;;8.30;99.90;;;;;;5023876;28;20758;-82
2021/12/24 11:30:52;;;;;;;4.50;3.90;;;7.70;99.90;;;;;;5025107;28;20623;-81
2021/12/24 11:33:21;;;;;;;5.20;4.70;;;7.90;99.90;;;;;;5022832;28;20631;-82
2021/12/24 11:35:50;;;;;;;4.20;3.90;;;7.90;99.90;;;;;;5024718;28;20684;-82
2021/12/24 11:38:20;;;;;;;3.30;3.00;;;7.90;99.90;;;;;;5023582;28;20651;-81
2021/12/24 11:40:49;;;;;;;4.13;3.30;;;7.90;99.90;;;;;;5026578;28;20714;-82
2021/12/24 11:43:20;;;;;;;3.07;2.77;;;8.00;99.90;;;;;;5022985;28;20623;-82
2021/12/24 11:45:48;;;;;;;5.03;4.63;;;;;;;;;;5025459;28;20628;-82
2021/12/24 11:48:21;;;;;;;4.40;4.00;;;8.00;99.90;;;;;;5024683;28;20635;-82
2021/12/24 11:50:48;;;;;;;5.70;5.20;;;7.90;99.90;;;;;;5028571;28;20619;-82
2021/12/24 11:53:17;;;;;;;3.77;3.20;;;7.90;99.90;;;;;;5027578;28;21036;-82
2021/12/24 11:55:48;;;;;;;2.65;2.45;;;8.10;99.90;;;;;;5028792;28;21417;-81
2021/12/24 11:58:18;;;;;;;4.17;3.77;;;8.00;99.90;;;;;;5028932;28;20208;-81
2021/12/24 12:00:50;;;;;;;4.43;2.70;;;6.30;99.90;;;;;;5027577;28;20675;-82
2021/12/24 12:03:35;;;;;;;4.20;3.27;;;8.10;99.90;;;;;;5009715;28;20638;-81
2021/12/24 12:06:04;;;;;;;2.33;2.13;;;8.00;99.90;;;;;;5009184;28;20675;-83
2021/12/24 12:08:42;;;;;;;3.20;2.30;;;8.20;99.90;;;;;;5009579;28;20631;-83
2021/12/24 12:11:19;;;;;;;3.70;2.07;;;8.30;99.90;;;;;;5003179;28;20656;-83
2021/12/24 12:13:53;;;;;;;3.00;2.37;;;8.50;99.90;;;;;;5008105;28;20632;-83
2021/12/24 12:16:23;;;;;;;3.20;2.90;;;8.30;99.90;;;;;;5001966;28;20648;-83
2021/12/24 12:19:04;;;;;;;2.60;2.47;;;8.50;99.90;;;;;;5008093;28;20628;-83
2021/12/24 12:21:38;;;;;;;2.23;2.10;;;8.40;99.90;;;;;;5008946;28;20672;-83
2021/12/24 12:27:00;;;;;;;2.10;2.00;;;8.50;99.90;;;;;;5002687;28;20629;-83
2021/12/24 12:29:33;;;;;;;2.57;2.37;;;8.50;99.90;;;;;;5004025;28;20686;-83
2021/12/24 12:32:39;;;;;;;2.70;2.20;;;8.50;99.90;;;;;;5002821;28;20624;-83
2021/12/24 12:35:07;;;;;;;1.90;1.80;;;8.30;99.90;;;;;;5003364;28;21187;-83
2021/12/24 12:37:44;;;;;;;2.07;1.87;;;8.60;99.90;;;;;;5000048;28;20196;-83
2021/12/24 12:40:30;;;;;;;3.10;1.55;;;8.70;99.90;;;;;;5001950;28;20759;-84
2021/12/24 12:43:08;;;;;;;3.90;1.57;;;8.70;99.90;;;;;;5001604;28;20833;-83
2021/12/24 12:45:56;;;;;;;3.67;1.87;;;8.80;99.90;;;;;;5005878;28;20742;-82
2021/12/24 12:48:41;;;;;;;1.63;1.53;;;8.70;99.90;;;;;;5003247;28;20716;-82
2021/12/24 12:51:08;;;;;;;0.97;0.93;;;;;;;;;;5001818;28;20632;-82
2021/12/24 12:53:40;;;;;;;1.37;1.27;;;8.60;99.90;;;;;;5005157;28;20633;-82
2021/12/24 12:56:15;;;;;;;0.90;0.90;;;8.80;99.90;;;;;;5005366;28;20731;-83
2021/12/24 12:58:43;;;;;;;1.37;1.27;;;8.70;99.90;;;;;;5005833;28;20623;-83
2021/12/24 13:01:14;;;;;;;1.40;1.20;;;8.70;99.90;;;;;;5000927;28;20679;-82
2021/12/24 13:04:14;;;;;;;1.50;1.40;;;8.90;99.90;;;;;;4999223;28;20839;-82
2021/12/24 13:06:53;;;;;;;1.53;1.43;;;8.60;99.90;;;;;;4997568;28;20229;-82
2021/12/24 13:09:23;;;;;;;1.50;1.27;;;8.60;99.90;;;;;;5002682;28;20640;-83
2021/12/24 13:11:52;;;;;;;1.53;1.30;;;8.60;99.90;;;;;;5003111;28;20722;-83
2021/12/24 13:14:20;;;;;;;2.20;1.23;;;8.80;99.90;;;;;;5003858;28;20636;-82
2021/12/24 13:16:52;;;;;;;2.53;2.33;;;8.70;99.90;;;;;;5001626;28;20648;-83
2021/12/24 13:19:44;;;;;;;1.57;1.27;;;8.60;99.90;;;;;;4998267;28;20956;-83
2021/12/24 13:24:57;;;;;;;2.53;2.33;;;8.60;99.90;;;;;;4998293;28;20644;-83
2021/12/24 13:27:28;;;;;;;2.80;2.50;;;8.60;99.90;;;;;;5003481;28;20640;-82
2021/12/24 13:30:21;;;;;;;3.90;2.60;;;8.70;99.90;;;;;;5007168;28;20627;-82
2021/12/24 13:32:51;;;;;;;2.70;2.50;;;8.60;99.90;;;;;;5003105;28;21076;-82
2021/12/24 13:35:21;;;;;;;3.20;2.87;;;;;;;;;;5006957;28;20629;-82
2021/12/24 13:37:58;;;;;;;6.77;3.00;;;8.40;99.90;;;;;;5005918;28;20635;-82
2021/12/24 13:40:35;;;;;;;5.10;4.17;;;8.30;99.90;;;;;;5004160;28;20671;-82
2021/12/24 13:43:06;;;;;;;6.67;6.07;;;8.60;99.90;;;;;;5006212;28;21187;-81
2021/12/24 13:45:40;;;;;;;5.30;3.90;;;8.40;99.90;;;;;;5006886;28;20701;-81
2021/12/24 13:48:16;;;;;;;4.10;3.70;;;8.40;99.90;;;;;;5003637;28;20632;-81
2021/12/24 13:56:51;;;;;;;4.20;3.80;;;8.40;99.90;;;;;;4965504;28;20757;-82
2021/12/24 13:59:22;;;;;;;3.07;2.80;;;8.30;99.90;;;;;;4965653;28;20642;-82
2021/12/24 14:02:01;;;;;;;3.17;2.87;;;8.50;99.90;;;;;;4959977;28;20676;-83
2021/12/24 14:04:47;;;;;;;3.00;2.80;;;8.60;99.90;;;;;;4981082;28;20708;-82
2021/12/24 14:07:15;;;;;;;2.37;2.27;;;8.50;99.90;;;;;;5003023;28;20643;-80
2021/12/24 14:09:43;;;;;;;2.37;2.17;;;;;;;;;;5000106;28;20727;-80
2021/12/24 14:12:11;;;;;;;3.47;1.90;;;;;;;;;;4999543;28;20640;-81
2021/12/24 14:14:49;;;;;;;2.93;2.13;;;8.50;99.90;;;;;;4999847;28;20628;-80
2021/12/24 14:17:36;;;;;;;5.50;2.60;;;;;;;;;;5003440;28;20661;-80
2021/12/24 14:20:24;;;;;;;1.53;1.27;;;8.50;99.90;;;;;;4996270;28;20656;-80
2021/12/24 14:22:52;;;;;;;1.70;1.60;;;8.40;99.90;;;;;;4997563;28;20665;-80
2021/12/24 14:25:20;;;;;;;1.57;1.40;;;;;;;;;;5002382;28;20690;-81
2021/12/24 14:27:48;;;;;;;2.20;1.90;;;8.50;99.90;;;;;;4997066;28;20629;-81
2021/12/24 14:30:18;;;;;;;1.57;1.40;;;8.50;99.90;;;;;;5001003;28;21713;-81
2021/12/24 14:32:47;;;;;;;1.63;1.53;;;8.50;99.90;;;;;;4998089;28;21153;-80
2021/12/24 14:35:19;;;;;;;2.10;1.70;;;8.60;99.90;;;;;;4999571;28;21064;-81
2021/12/24 14:37:57;;;;;;;2.10;1.83;;;8.60;99.90;;;;;;4996327;28;20640;-81
2021/12/24 14:40:25;;;;;;;2.30;1.60;;;8.50;99.90;;;;;;5000264;28;20672;-80
2021/12/24 14:42:54;;;;;;;1.70;1.60;;;8.60;99.90;;;;;;5003369;28;20755;-80
2021/12/24 14:45:22;;;;;;;1.60;1.47;;;8.50;99.90;;;;;;5001847;28;20635;-81
2021/12/24 14:48:03;;;;;;;1.50;1.40;;;8.50;99.90;;;;;;4998862;28;21189;-80
2021/12/24 14:50:31;;;;;;;1.50;1.40;;;8.60;99.90;;;;;;5000707;28;20651;-81
2021/12/24 14:53:17;;;;;;;1.30;1.20;;;8.60;99.90;;;;;;4999342;28;20648;-80
2021/12/24 14:55:47;;;;;;;1.20;1.10;;;8.50;99.90;;;;;;4999403;28;20733;-80
2021/12/24 14:58:17;;;;;;;1.40;1.30;;;8.50;99.90;;;;;;5002084;28;21174;-80
2021/12/24 15:00:46;;;;;;;2.17;1.13;;;8.50;99.90;;;;;;4999993;28;20668;-80
2021/12/24 15:03:15;;;;;;;1.70;1.50;;;8.50;99.90;;;;;;5000034;28;21196;-80
2021/12/24 15:05:44;;;;;;;1.60;1.50;;;8.50;99.90;;;;;;4999437;28;20999;-80